Terminal Aerodrome Forecast
Issued by NWS

Home | Current Version | Previous Version | Text Only | Print | Product List | Glossary On
Versions: 1 2 3 4 5 6 7 8 9 10 11 12 13 14 15
000
FTUS45 KRIW 202327
TAFCPR
TAF
KCPR 202327Z 2100/2124 23015G25KT P6SM SCT150
     FM210200 22009KT P6SM BKN070 BKN140
     FM211700 22015G25KT P6SM BKN060=

USA.gov is the U.S. government's official web portal to all federal, state and local government web resources and services.